sensor_id;sensor_type;location;lat;lon;timestamp;P1;durP1;ratioP1;P2;durP2;ratioP2
19828;SDS011;10075;50.924;4.396;2023-11-21T00:01:20;105.10;;;39.40;;
19828;SDS011;10075;50.924;4.396;2023-11-21T00:03:48;107.30;;;39.70;;
19828;SDS011;10075;50.924;4.396;2023-11-21T00:06:15;99.10;;;36.97;;
19828;SDS011;10075;50.924;4.396;2023-11-21T00:08:43;113.63;;;39.10;;
19828;SDS011;10075;50.924;4.396;2023-11-21T00:11:10;103.95;;;38.72;;
19828;SDS011;10075;50.924;4.396;2023-11-21T00:13:37;83.67;;;36.13;;
19828;SDS011;10075;50.924;4.396;2023-11-21T00:16:04;93.22;;;36.40;;
19828;SDS011;10075;50.924;4.396;2023-11-21T00:18:32;123.38;;;41.00;;
19828;SDS011;10075;50.924;4.396;2023-11-21T00:21:01;122.80;;;39.63;;
19828;SDS011;10075;50.924;4.396;2023-11-21T00:23:28;107.03;;;38.43;;
19828;SDS011;10075;50.924;4.396;2023-11-21T00:25:55;101.47;;;36.77;;
19828;SDS011;10075;50.924;4.396;2023-11-21T00:28:23;110.20;;;40.00;;
19828;SDS011;10075;50.924;4.396;2023-11-21T00:30:50;120.40;;;39.27;;
19828;SDS011;10075;50.924;4.396;2023-11-21T00:33:17;131.55;;;40.90;;
19828;SDS011;10075;50.924;4.396;2023-11-21T00:35:44;136.40;;;42.10;;
19828;SDS011;10075;50.924;4.396;2023-11-21T00:38:12;119.97;;;41.27;;
19828;SDS011;10075;50.924;4.396;2023-11-21T00:40:39;113.87;;;40.20;;
19828;SDS011;10075;50.924;4.396;2023-11-21T00:43:07;121.50;;;41.50;;
19828;SDS011;10075;50.924;4.396;2023-11-21T00:45:34;125.93;;;40.67;;
19828;SDS011;10075;50.924;4.396;2023-11-21T00:48:01;124.40;;;40.33;;
19828;SDS011;10075;50.924;4.396;2023-11-21T00:50:29;122.70;;;40.57;;
19828;SDS011;10075;50.924;4.396;2023-11-21T00:52:56;125.85;;;40.88;;
19828;SDS011;10075;50.924;4.396;2023-11-21T00:55:25;126.83;;;42.37;;
19828;SDS011;10075;50.924;4.396;2023-11-21T00:57:53;98.33;;;38.53;;
19828;SDS011;10075;50.924;4.396;2023-11-21T01:00:20;114.47;;;40.17;;
19828;SDS011;10075;50.924;4.396;2023-11-21T01:02:47;123.23;;;42.37;;
19828;SDS011;10075;50.924;4.396;2023-11-21T01:05:14;115.65;;;41.28;;
19828;SDS011;10075;50.924;4.396;2023-11-21T01:07:40;134.87;;;42.67;;
19828;SDS011;10075;50.924;4.396;2023-11-21T01:10:08;107.37;;;41.00;;
19828;SDS011;10075;50.924;4.396;2023-11-21T01:12:37;109.97;;;40.67;;
19828;SDS011;10075;50.924;4.396;2023-11-21T01:15:05;103.40;;;39.30;;
19828;SDS011;10075;50.924;4.396;2023-11-21T01:17:33;120.50;;;41.57;;
19828;SDS011;10075;50.924;4.396;2023-11-21T01:20:00;113.75;;;41.83;;
19828;SDS011;10075;50.924;4.396;2023-11-21T01:22:28;85.13;;;35.47;;
19828;SDS011;10075;50.924;4.396;2023-11-21T01:24:54;94.78;;;38.17;;
19828;SDS011;10075;50.924;4.396;2023-11-21T01:27:21;89.10;;;37.03;;
19828;SDS011;10075;50.924;4.396;2023-11-21T01:29:50;94.10;;;36.40;;
19828;SDS011;10075;50.924;4.396;2023-11-21T01:32:18;105.20;;;38.80;;
19828;SDS011;10075;50.924;4.396;2023-11-21T01:34:45;97.30;;;36.97;;
19828;SDS011;10075;50.924;4.396;2023-11-21T01:37:12;91.70;;;36.47;;
19828;SDS011;10075;50.924;4.396;2023-11-21T01:39:39;111.07;;;38.50;;
19828;SDS011;10075;50.924;4.396;2023-11-21T01:42:06;96.35;;;36.22;;
19828;SDS011;10075;50.924;4.396;2023-11-21T01:44:33;99.90;;;37.53;;
19828;SDS011;10075;50.924;4.396;2023-11-21T01:47:02;97.13;;;36.80;;
19828;SDS011;10075;50.924;4.396;2023-11-21T01:49:30;90.70;;;37.07;;
19828;SDS011;10075;50.924;4.396;2023-11-21T01:51:58;88.28;;;35.35;;
19828;SDS011;10075;50.924;4.396;2023-11-21T01:54:25;82.53;;;35.27;;
19828;SDS011;10075;50.924;4.396;2023-11-21T01:56:56;81.13;;;36.30;;
19828;SDS011;10075;50.924;4.396;2023-11-21T01:59:27;82.07;;;34.27;;
19828;SDS011;10075;50.924;4.396;2023-11-21T02:02:01;73.97;;;33.53;;
19828;SDS011;10075;50.924;4.396;2023-11-21T02:04:30;85.60;;;34.78;;
19828;SDS011;10075;50.924;4.396;2023-11-21T02:06:57;73.18;;;32.58;;
19828;SDS011;10075;50.924;4.396;2023-11-21T02:09:25;66.07;;;31.43;;
19828;SDS011;10075;50.924;4.396;2023-11-21T02:11:52;76.47;;;31.23;;
19828;SDS011;10075;50.924;4.396;2023-11-21T02:14:20;72.50;;;30.77;;
19828;SDS011;10075;50.924;4.396;2023-11-21T02:16:47;72.20;;;30.57;;
19828;SDS011;10075;50.924;4.396;2023-11-21T02:19:17;62.63;;;28.75;;
19828;SDS011;10075;50.924;4.396;2023-11-21T02:21:47;67.20;;;29.77;;
19828;SDS011;10075;50.924;4.396;2023-11-21T02:24:18;65.32;;;29.55;;
19828;SDS011;10075;50.924;4.396;2023-11-21T02:26:46;66.37;;;29.13;;
19828;SDS011;10075;50.924;4.396;2023-11-21T02:29:13;56.92;;;27.75;;
19828;SDS011;10075;50.924;4.396;2023-11-21T02:31:43;60.97;;;27.97;;
19828;SDS011;10075;50.924;4.396;2023-11-21T02:34:13;54.80;;;26.73;;
19828;SDS011;10075;50.924;4.396;2023-11-21T02:36:40;58.92;;;26.10;;
19828;SDS011;10075;50.924;4.396;2023-11-21T02:39:07;51.85;;;25.70;;
19828;SDS011;10075;50.924;4.396;2023-11-21T02:41:36;52.07;;;24.43;;
19828;SDS011;10075;50.924;4.396;2023-11-21T02:44:04;52.40;;;24.90;;
19828;SDS011;10075;50.924;4.396;2023-11-21T02:46:32;56.15;;;25.42;;
19828;SDS011;10075;50.924;4.396;2023-11-21T02:49:00;48.93;;;24.43;;
19828;SDS011;10075;50.924;4.396;2023-11-21T02:51:27;48.00;;;24.43;;
19828;SDS011;10075;50.924;4.396;2023-11-21T02:53:53;50.80;;;24.45;;
19828;SDS011;10075;50.924;4.396;2023-11-21T02:56:23;50.80;;;24.37;;
19828;SDS011;10075;50.924;4.396;2023-11-21T02:58:52;49.40;;;23.27;;
19828;SDS011;10075;50.924;4.396;2023-11-21T03:01:21;51.30;;;23.73;;
19828;SDS011;10075;50.924;4.396;2023-11-21T03:03:49;53.97;;;24.17;;
19828;SDS011;10075;50.924;4.396;2023-11-21T03:06:16;54.17;;;23.70;;
19828;SDS011;10075;50.924;4.396;2023-11-21T03:08:43;54.57;;;23.80;;
19828;SDS011;10075;50.924;4.396;2023-11-21T03:11:10;51.77;;;23.23;;
19828;SDS011;10075;50.924;4.396;2023-11-21T03:13:38;49.50;;;23.37;;
19828;SDS011;10075;50.924;4.396;2023-11-21T03:16:08;52.77;;;21.97;;
19828;SDS011;10075;50.924;4.396;2023-11-21T03:18:35;43.13;;;21.67;;
19828;SDS011;10075;50.924;4.396;2023-11-21T03:21:02;64.22;;;25.60;;
19828;SDS011;10075;50.924;4.396;2023-11-21T03:23:46;61.03;;;24.25;;
19828;SDS011;10075;50.924;4.396;2023-11-21T03:26:13;44.35;;;22.00;;
19828;SDS011;10075;50.924;4.396;2023-11-21T03:28:41;43.10;;;21.83;;
19828;SDS011;10075;50.924;4.396;2023-11-21T03:31:08;45.92;;;21.55;;
19828;SDS011;10075;50.924;4.396;2023-11-21T03:33:35;52.07;;;24.30;;
19828;SDS011;10075;50.924;4.396;2023-11-21T03:36:03;39.90;;;20.30;;
19828;SDS011;10075;50.924;4.396;2023-11-21T03:38:30;54.83;;;22.77;;
19828;SDS011;10075;50.924;4.396;2023-11-21T03:40:58;47.90;;;22.53;;
19828;SDS011;10075;50.924;4.396;2023-11-21T03:43:25;57.40;;;24.40;;
19828;SDS011;10075;50.924;4.396;2023-11-21T03:45:52;49.97;;;23.17;;
19828;SDS011;10075;50.924;4.396;2023-11-21T03:48:19;57.93;;;23.23;;
19828;SDS011;10075;50.924;4.396;2023-11-21T03:50:46;42.75;;;21.90;;
19828;SDS011;10075;50.924;4.396;2023-11-21T03:53:14;54.83;;;24.67;;
19828;SDS011;10075;50.924;4.396;2023-11-21T03:55:41;49.78;;;23.20;;
19828;SDS011;10075;50.924;4.396;2023-11-21T03:58:09;50.65;;;21.95;;
19828;SDS011;10075;50.924;4.396;2023-11-21T04:00:36;53.13;;;23.63;;
19828;SDS011;10075;50.924;4.396;2023-11-21T04:03:03;57.87;;;25.37;;
19828;SDS011;10075;50.924;4.396;2023-11-21T04:05:30;55.87;;;24.17;;
19828;SDS011;10075;50.924;4.396;2023-11-21T04:07:57;59.95;;;23.60;;
19828;SDS011;10075;50.924;4.396;2023-11-21T04:10:24;50.30;;;23.60;;
19828;SDS011;10075;50.924;4.396;2023-11-21T04:12:51;52.28;;;24.65;;
19828;SDS011;10075;50.924;4.396;2023-11-21T04:15:19;53.63;;;24.20;;
19828;SDS011;10075;50.924;4.396;2023-11-21T04:17:46;48.45;;;23.17;;
19828;SDS011;10075;50.924;4.396;2023-11-21T04:20:13;54.92;;;25.27;;
19828;SDS011;10075;50.924;4.396;2023-11-21T04:22:40;46.00;;;23.97;;
19828;SDS011;10075;50.924;4.396;2023-11-21T04:25:09;45.13;;;22.27;;
19828;SDS011;10075;50.924;4.396;2023-11-21T04:27:38;44.60;;;22.23;;
19828;SDS011;10075;50.924;4.396;2023-11-21T04:30:05;44.07;;;21.90;;
19828;SDS011;10075;50.924;4.396;2023-11-21T04:32:36;39.33;;;21.10;;
19828;SDS011;10075;50.924;4.396;2023-11-21T04:35:04;34.53;;;20.77;;
19828;SDS011;10075;50.924;4.396;2023-11-21T04:37:32;39.55;;;21.25;;
19828;SDS011;10075;50.924;4.396;2023-11-21T04:39:59;34.00;;;21.07;;
19828;SDS011;10075;50.924;4.396;2023-11-21T04:42:26;46.13;;;23.67;;
19828;SDS011;10075;50.924;4.396;2023-11-21T04:44:54;49.47;;;25.02;;
19828;SDS011;10075;50.924;4.396;2023-11-21T04:47:21;45.83;;;22.80;;
19828;SDS011;10075;50.924;4.396;2023-11-21T04:49:50;50.43;;;24.00;;
19828;SDS011;10075;50.924;4.396;2023-11-21T04:52:17;41.87;;;22.47;;
19828;SDS011;10075;50.924;4.396;2023-11-21T04:54:45;46.90;;;23.48;;
19828;SDS011;10075;50.924;4.396;2023-11-21T04:57:12;42.00;;;23.13;;
19828;SDS011;10075;50.924;4.396;2023-11-21T04:59:39;46.20;;;24.53;;
19828;SDS011;10075;50.924;4.396;2023-11-21T05:02:06;46.40;;;24.57;;
19828;SDS011;10075;50.924;4.396;2023-11-21T05:04:33;48.53;;;24.07;;
19828;SDS011;10075;50.924;4.396;2023-11-21T05:07:01;38.00;;;22.52;;
19828;SDS011;10075;50.924;4.396;2023-11-21T05:09:28;43.30;;;23.23;;
19828;SDS011;10075;50.924;4.396;2023-11-21T05:11:57;52.47;;;25.03;;
19828;SDS011;10075;50.924;4.396;2023-11-21T05:14:25;60.20;;;26.50;;
19828;SDS011;10075;50.924;4.396;2023-11-21T05:16:52;49.33;;;24.47;;
19828;SDS011;10075;50.924;4.396;2023-11-21T05:19:19;47.38;;;24.98;;
19828;SDS011;10075;50.924;4.396;2023-11-21T05:21:46;64.77;;;28.50;;
19828;SDS011;10075;50.924;4.396;2023-11-21T05:24:14;67.47;;;27.43;;
19828;SDS011;10075;50.924;4.396;2023-11-21T05:26:41;73.80;;;31.10;;
19828;SDS011;10075;50.924;4.396;2023-11-21T05:29:08;71.30;;;29.73;;
19828;SDS011;10075;50.924;4.396;2023-11-21T05:31:35;51.77;;;27.37;;
19828;SDS011;10075;50.924;4.396;2023-11-21T05:34:03;50.05;;;24.85;;
19828;SDS011;10075;50.924;4.396;2023-11-21T05:36:30;54.37;;;26.70;;
19828;SDS011;10075;50.924;4.396;2023-11-21T05:38:57;61.63;;;28.77;;
19828;SDS011;10075;50.924;4.396;2023-11-21T05:41:25;62.37;;;29.13;;
19828;SDS011;10075;50.924;4.396;2023-11-21T05:43:52;69.73;;;30.03;;
19828;SDS011;10075;50.924;4.396;2023-11-21T05:46:19;58.92;;;28.15;;
19828;SDS011;10075;50.924;4.396;2023-11-21T05:48:46;47.17;;;26.35;;
19828;SDS011;10075;50.924;4.396;2023-11-21T05:51:14;56.20;;;26.47;;
19828;SDS011;10075;50.924;4.396;2023-11-21T05:53:41;50.83;;;26.30;;
19828;SDS011;10075;50.924;4.396;2023-11-21T05:56:08;45.05;;;25.73;;
19828;SDS011;10075;50.924;4.396;2023-11-21T05:58:36;37.72;;;24.27;;
19828;SDS011;10075;50.924;4.396;2023-11-21T06:01:05;45.77;;;25.57;;
19828;SDS011;10075;50.924;4.396;2023-11-21T06:03:34;44.80;;;25.17;;
19828;SDS011;10075;50.924;4.396;2023-11-21T06:06:01;41.70;;;24.60;;
19828;SDS011;10075;50.924;4.396;2023-11-21T06:08:29;36.83;;;22.08;;
19828;SDS011;10075;50.924;4.396;2023-11-21T06:10:56;40.23;;;24.63;;
19828;SDS011;10075;50.924;4.396;2023-11-21T06:13:23;51.43;;;26.03;;
19828;SDS011;10075;50.924;4.396;2023-11-21T06:15:51;48.13;;;25.47;;
19828;SDS011;10075;50.924;4.396;2023-11-21T06:18:18;49.37;;;27.13;;
19828;SDS011;10075;50.924;4.396;2023-11-21T06:20:45;56.85;;;28.35;;
19828;SDS011;10075;50.924;4.396;2023-11-21T06:23:12;66.83;;;31.37;;
19828;SDS011;10075;50.924;4.396;2023-11-21T06:25:41;61.73;;;30.53;;
19828;SDS011;10075;50.924;4.396;2023-11-21T06:28:08;65.07;;;32.13;;
19828;SDS011;10075;50.924;4.396;2023-11-21T06:30:35;55.03;;;29.60;;
19828;SDS011;10075;50.924;4.396;2023-11-21T06:33:04;80.60;;;35.10;;
19828;SDS011;10075;50.924;4.396;2023-11-21T06:35:31;53.63;;;27.97;;
19828;SDS011;10075;50.924;4.396;2023-11-21T06:38:00;66.60;;;33.10;;
19828;SDS011;10075;50.924;4.396;2023-11-21T06:40:28;56.55;;;28.20;;
19828;SDS011;10075;50.924;4.396;2023-11-21T06:42:55;59.37;;;30.33;;
19828;SDS011;10075;50.924;4.396;2023-11-21T06:45:23;73.80;;;33.57;;
19828;SDS011;10075;50.924;4.396;2023-11-21T06:47:50;49.30;;;27.50;;
19828;SDS011;10075;50.924;4.396;2023-11-21T06:50:19;46.03;;;26.50;;
19828;SDS011;10075;50.924;4.396;2023-11-21T06:52:46;57.83;;;28.73;;
19828;SDS011;10075;50.924;4.396;2023-11-21T06:55:13;49.13;;;27.17;;
19828;SDS011;10075;50.924;4.396;2023-11-21T06:57:41;53.33;;;27.67;;
19828;SDS011;10075;50.924;4.396;2023-11-21T07:00:08;72.87;;;32.13;;
19828;SDS011;10075;50.924;4.396;2023-11-21T07:02:36;54.53;;;29.40;;
19828;SDS011;10075;50.924;4.396;2023-11-21T07:05:04;61.00;;;29.53;;
19828;SDS011;10075;50.924;4.396;2023-11-21T07:07:32;62.53;;;29.40;;
19828;SDS011;10075;50.924;4.396;2023-11-21T07:10:00;60.07;;;31.77;;
19828;SDS011;10075;50.924;4.396;2023-11-21T07:12:28;43.70;;;24.70;;
19828;SDS011;10075;50.924;4.396;2023-11-21T07:14:56;52.27;;;27.97;;
19828;SDS011;10075;50.924;4.396;2023-11-21T07:17:23;43.63;;;25.58;;
19828;SDS011;10075;50.924;4.396;2023-11-21T07:19:50;51.20;;;27.30;;
19828;SDS011;10075;50.924;4.396;2023-11-21T07:22:17;46.43;;;25.97;;
19828;SDS011;10075;50.924;4.396;2023-11-21T07:24:49;46.30;;;26.17;;
19828;SDS011;10075;50.924;4.396;2023-11-21T07:27:17;48.97;;;25.87;;
19828;SDS011;10075;50.924;4.396;2023-11-21T07:29:44;49.38;;;27.17;;
19828;SDS011;10075;50.924;4.396;2023-11-21T07:32:11;60.53;;;29.85;;
19828;SDS011;10075;50.924;4.396;2023-11-21T07:34:39;50.72;;;27.00;;
19828;SDS011;10075;50.924;4.396;2023-11-21T07:37:06;77.45;;;33.97;;
19828;SDS011;10075;50.924;4.396;2023-11-21T07:39:34;79.33;;;33.37;;
19828;SDS011;10075;50.924;4.396;2023-11-21T07:42:02;58.73;;;28.43;;
19828;SDS011;10075;50.924;4.396;2023-11-21T07:44:29;59.47;;;28.25;;
19828;SDS011;10075;50.924;4.396;2023-11-21T07:46:56;64.78;;;30.95;;
19828;SDS011;10075;50.924;4.396;2023-11-21T07:49:23;51.23;;;27.83;;
19828;SDS011;10075;50.924;4.396;2023-11-21T07:51:51;65.57;;;28.60;;
19828;SDS011;10075;50.924;4.396;2023-11-21T07:54:18;47.90;;;27.77;;
19828;SDS011;10075;50.924;4.396;2023-11-21T07:56:46;43.35;;;26.23;;
19828;SDS011;10075;50.924;4.396;2023-11-21T07:59:14;55.00;;;29.63;;
19828;SDS011;10075;50.924;4.396;2023-11-21T08:01:42;45.93;;;26.13;;
19828;SDS011;10075;50.924;4.396;2023-11-21T08:04:10;62.92;;;29.35;;
19828;SDS011;10075;50.924;4.396;2023-11-21T08:06:38;42.53;;;24.67;;
19828;SDS011;10075;50.924;4.396;2023-11-21T08:09:06;54.35;;;27.65;;
19828;SDS011;10075;50.924;4.396;2023-11-21T08:11:34;37.85;;;24.60;;
19828;SDS011;10075;50.924;4.396;2023-11-21T08:14:01;38.43;;;23.97;;
19828;SDS011;10075;50.924;4.396;2023-11-21T08:16:29;50.78;;;24.60;;
19828;SDS011;10075;50.924;4.396;2023-11-21T08:18:56;60.00;;;29.08;;
19828;SDS011;10075;50.924;4.396;2023-11-21T08:21:23;42.88;;;25.00;;
19828;SDS011;10075;50.924;4.396;2023-11-21T08:23:50;47.78;;;25.95;;
19828;SDS011;10075;50.924;4.396;2023-11-21T08:26:19;53.65;;;28.05;;
19828;SDS011;10075;50.924;4.396;2023-11-21T08:28:46;68.03;;;30.52;;
19828;SDS011;10075;50.924;4.396;2023-11-21T08:31:13;46.72;;;24.38;;
19828;SDS011;10075;50.924;4.396;2023-11-21T08:33:42;116.78;;;38.42;;
19828;SDS011;10075;50.924;4.396;2023-11-21T08:36:09;69.32;;;29.33;;
19828;SDS011;10075;50.924;4.396;2023-11-21T08:38:37;93.63;;;32.53;;
19828;SDS011;10075;50.924;4.396;2023-11-21T08:41:05;91.03;;;33.00;;
19828;SDS011;10075;50.924;4.396;2023-11-21T08:43:33;53.67;;;26.73;;
19828;SDS011;10075;50.924;4.396;2023-11-21T08:46:04;131.20;;;39.15;;
19828;SDS011;10075;50.924;4.396;2023-11-21T08:48:34;98.05;;;34.05;;
19828;SDS011;10075;50.924;4.396;2023-11-21T08:51:03;110.70;;;35.65;;
19828;SDS011;10075;50.924;4.396;2023-11-21T08:53:31;65.10;;;28.43;;
19828;SDS011;10075;50.924;4.396;2023-11-21T08:55:58;101.33;;;35.03;;
19828;SDS011;10075;50.924;4.396;2023-11-21T08:58:25;72.70;;;28.65;;
19828;SDS011;10075;50.924;4.396;2023-11-21T09:00:51;220.98;;;46.22;;
19828;SDS011;10075;50.924;4.396;2023-11-21T09:03:18;99.55;;;32.17;;
19828;SDS011;10075;50.924;4.396;2023-11-21T09:05:45;96.25;;;31.92;;
19828;SDS011;10075;50.924;4.396;2023-11-21T09:08:14;81.97;;;30.98;;
19828;SDS011;10075;50.924;4.396;2023-11-21T09:10:41;90.47;;;31.17;;
19828;SDS011;10075;50.924;4.396;2023-11-21T09:13:12;116.47;;;38.05;;
19828;SDS011;10075;50.924;4.396;2023-11-21T09:15:41;72.07;;;30.07;;
19828;SDS011;10075;50.924;4.396;2023-11-21T09:18:11;76.88;;;30.20;;
19828;SDS011;10075;50.924;4.396;2023-11-21T09:20:39;54.00;;;25.73;;
19828;SDS011;10075;50.924;4.396;2023-11-21T09:23:05;63.10;;;27.48;;
19828;SDS011;10075;50.924;4.396;2023-11-21T09:25:34;64.25;;;27.38;;
19828;SDS011;10075;50.924;4.396;2023-11-21T09:28:02;48.50;;;22.87;;
19828;SDS011;10075;50.924;4.396;2023-11-21T09:30:33;50.67;;;23.88;;
19828;SDS011;10075;50.924;4.396;2023-11-21T09:33:00;52.33;;;22.80;;
19828;SDS011;10075;50.924;4.396;2023-11-21T09:35:27;42.03;;;20.98;;
19828;SDS011;10075;50.924;4.396;2023-11-21T09:37:54;34.88;;;17.55;;
19828;SDS011;10075;50.924;4.396;2023-11-21T09:40:21;37.60;;;19.13;;
19828;SDS011;10075;50.924;4.396;2023-11-21T09:42:51;31.70;;;18.13;;
19828;SDS011;10075;50.924;4.396;2023-11-21T09:45:24;31.20;;;18.37;;
19828;SDS011;10075;50.924;4.396;2023-11-21T09:47:52;46.38;;;22.05;;
19828;SDS011;10075;50.924;4.396;2023-11-21T09:50:21;34.75;;;20.13;;
19828;SDS011;10075;50.924;4.396;2023-11-21T09:52:49;44.13;;;22.73;;
19828;SDS011;10075;50.924;4.396;2023-11-21T09:55:22;34.00;;;22.33;;
19828;SDS011;10075;50.924;4.396;2023-11-21T09:57:55;44.37;;;23.63;;
19828;SDS011;10075;50.924;4.396;2023-11-21T10:00:23;59.33;;;26.27;;
19828;SDS011;10075;50.924;4.396;2023-11-21T10:02:50;40.67;;;21.57;;
19828;SDS011;10075;50.924;4.396;2023-11-21T10:05:18;45.37;;;25.83;;
19828;SDS011;10075;50.924;4.396;2023-11-21T10:07:46;39.47;;;21.58;;
19828;SDS011;10075;50.924;4.396;2023-11-21T10:10:16;73.57;;;28.98;;
19828;SDS011;10075;50.924;4.396;2023-11-21T10:12:48;45.33;;;25.03;;
19828;SDS011;10075;50.924;4.396;2023-11-21T10:15:20;47.80;;;25.08;;
19828;SDS011;10075;50.924;4.396;2023-11-21T10:17:48;53.00;;;26.23;;
19828;SDS011;10075;50.924;4.396;2023-11-21T10:20:18;46.78;;;24.58;;
19828;SDS011;10075;50.924;4.396;2023-11-21T10:22:46;46.60;;;25.92;;
19828;SDS011;10075;50.924;4.396;2023-11-21T10:25:13;38.80;;;22.87;;
19828;SDS011;10075;50.924;4.396;2023-11-21T10:27:40;36.38;;;21.15;;
19828;SDS011;10075;50.924;4.396;2023-11-21T10:30:08;36.05;;;22.55;;
19828;SDS011;10075;50.924;4.396;2023-11-21T10:32:38;37.25;;;20.98;;
19828;SDS011;10075;50.924;4.396;2023-11-21T10:35:06;36.20;;;22.30;;
19828;SDS011;10075;50.924;4.396;2023-11-21T10:37:35;34.88;;;22.73;;
19828;SDS011;10075;50.924;4.396;2023-11-21T10:40:04;36.45;;;21.63;;
19828;SDS011;10075;50.924;4.396;2023-11-21T10:42:32;37.60;;;22.40;;
19828;SDS011;10075;50.924;4.396;2023-11-21T10:44:59;40.13;;;24.75;;
19828;SDS011;10075;50.924;4.396;2023-11-21T10:47:28;38.95;;;24.25;;
19828;SDS011;10075;50.924;4.396;2023-11-21T10:49:58;49.20;;;28.60;;
19828;SDS011;10075;50.924;4.396;2023-11-21T10:52:27;38.78;;;24.10;;
19828;SDS011;10075;50.924;4.396;2023-11-21T10:54:54;36.50;;;23.52;;
19828;SDS011;10075;50.924;4.396;2023-11-21T10:57:24;37.92;;;24.45;;
19828;SDS011;10075;50.924;4.396;2023-11-21T10:59:52;38.28;;;24.70;;
19828;SDS011;10075;50.924;4.396;2023-11-21T11:02:22;46.42;;;27.73;;
19828;SDS011;10075;50.924;4.396;2023-11-21T11:04:53;46.05;;;27.13;;
19828;SDS011;10075;50.924;4.396;2023-11-21T11:07:23;43.58;;;26.60;;
19828;SDS011;10075;50.924;4.396;2023-11-21T11:09:53;42.65;;;24.92;;
19828;SDS011;10075;50.924;4.396;2023-11-21T11:12:20;39.63;;;24.27;;
19828;SDS011;10075;50.924;4.396;2023-11-21T11:14:47;35.78;;;23.13;;
19828;SDS011;10075;50.924;4.396;2023-11-21T11:17:15;38.58;;;26.75;;
19828;SDS011;10075;50.924;4.396;2023-11-21T11:19:44;39.95;;;24.13;;
19828;SDS011;10075;50.924;4.396;2023-11-21T13:01:57;28.00;;;18.88;;
19828;SDS011;10075;50.924;4.396;2023-11-21T13:04:31;22.30;;;17.20;;
19828;SDS011;10075;50.924;4.396;2023-11-21T13:07:03;22.83;;;17.13;;
19828;SDS011;10075;50.924;4.396;2023-11-21T13:09:38;23.87;;;16.67;;
19828;SDS011;10075;50.924;4.396;2023-11-21T13:12:05;24.35;;;16.88;;
19828;SDS011;10075;50.924;4.396;2023-11-21T13:14:35;26.75;;;16.55;;
19828;SDS011;10075;50.924;4.396;2023-11-21T13:17:03;22.75;;;15.88;;
19828;SDS011;10075;50.924;4.396;2023-11-21T13:19:30;23.60;;;16.52;;
19828;SDS011;10075;50.924;4.396;2023-11-21T13:21:57;23.42;;;15.77;;
19828;SDS011;10075;50.924;4.396;2023-11-21T13:24:27;22.42;;;15.40;;
19828;SDS011;10075;50.924;4.396;2023-11-21T13:26:53;22.52;;;15.63;;
19828;SDS011;10075;50.924;4.396;2023-11-21T13:29:20;22.65;;;14.75;;
19828;SDS011;10075;50.924;4.396;2023-11-21T13:31:48;23.70;;;14.13;;
19828;SDS011;10075;50.924;4.396;2023-11-21T13:34:17;11.95;;;10.18;;
19828;SDS011;10075;50.924;4.396;2023-11-21T13:36:47;18.50;;;11.20;;
19828;SDS011;10075;50.924;4.396;2023-11-21T13:39:17;14.43;;;9.50;;
19828;SDS011;10075;50.924;4.396;2023-11-21T13:41:46;12.35;;;8.70;;
19828;SDS011;10075;50.924;4.396;2023-11-21T13:44:15;10.93;;;7.43;;
19828;SDS011;10075;50.924;4.396;2023-11-21T13:46:51;11.03;;;8.17;;
19828;SDS011;10075;50.924;4.396;2023-11-21T13:49:19;8.45;;;6.00;;
19828;SDS011;10075;50.924;4.396;2023-11-21T13:51:48;8.97;;;6.23;;
19828;SDS011;10075;50.924;4.396;2023-11-21T13:54:18;10.52;;;6.60;;
19828;SDS011;10075;50.924;4.396;2023-11-21T13:56:49;9.00;;;6.32;;
19828;SDS011;10075;50.924;4.396;2023-11-21T13:59:15;9.83;;;6.20;;
19828;SDS011;10075;50.924;4.396;2023-11-21T14:01:46;12.50;;;6.90;;
19828;SDS011;10075;50.924;4.396;2023-11-21T14:04:25;14.03;;;7.33;;
19828;SDS011;10075;50.924;4.396;2023-11-21T14:07:11;11.47;;;6.87;;
19828;SDS011;10075;50.924;4.396;2023-11-21T14:09:47;13.03;;;6.97;;
19828;SDS011;10075;50.924;4.396;2023-11-21T14:12:15;13.40;;;6.93;;
19828;SDS011;10075;50.924;4.396;2023-11-21T14:14:41;12.13;;;7.20;;
19828;SDS011;10075;50.924;4.396;2023-11-21T14:17:09;14.40;;;7.13;;
19828;SDS011;10075;50.924;4.396;2023-11-21T14:19:38;11.27;;;6.95;;
19828;SDS011;10075;50.924;4.396;2023-11-21T14:22:08;11.47;;;6.77;;
19828;SDS011;10075;50.924;4.396;2023-11-21T14:24:35;12.57;;;7.77;;
19828;SDS011;10075;50.924;4.396;2023-11-21T14:27:06;10.65;;;6.55;;
19828;SDS011;10075;50.924;4.396;2023-11-21T14:29:33;14.02;;;8.57;;
19828;SDS011;10075;50.924;4.396;2023-11-21T14:32:04;14.23;;;8.02;;
19828;SDS011;10075;50.924;4.396;2023-11-21T14:34:32;11.13;;;7.07;;
19828;SDS011;10075;50.924;4.396;2023-11-21T14:37:01;9.65;;;7.63;;
19828;SDS011;10075;50.924;4.396;2023-11-21T14:39:29;14.60;;;7.88;;
19828;SDS011;10075;50.924;4.396;2023-11-21T14:42:00;10.55;;;6.90;;
19828;SDS011;10075;50.924;4.396;2023-11-21T14:44:28;9.33;;;6.37;;
19828;SDS011;10075;50.924;4.396;2023-11-21T14:47:00;10.23;;;6.23;;
19828;SDS011;10075;50.924;4.396;2023-11-21T14:49:32;7.47;;;5.63;;
19828;SDS011;10075;50.924;4.396;2023-11-21T14:52:14;8.35;;;5.80;;
19828;SDS011;10075;50.924;4.396;2023-11-21T14:54:56;9.63;;;6.10;;
19828;SDS011;10075;50.924;4.396;2023-11-21T14:57:44;9.67;;;6.70;;
19828;SDS011;10075;50.924;4.396;2023-11-21T15:00:15;9.20;;;6.25;;
19828;SDS011;10075;50.924;4.396;2023-11-21T15:03:03;8.90;;;5.30;;
19828;SDS011;10075;50.924;4.396;2023-11-21T15:05:29;10.88;;;6.18;;
19828;SDS011;10075;50.924;4.396;2023-11-21T15:08:04;10.40;;;6.43;;
19828;SDS011;10075;50.924;4.396;2023-11-21T15:10:42;11.03;;;6.83;;
19828;SDS011;10075;50.924;4.396;2023-11-21T15:13:14;12.10;;;7.00;;
19828;SDS011;10075;50.924;4.396;2023-11-21T15:15:40;25.67;;;17.20;;
19828;SDS011;10075;50.924;4.396;2023-11-21T15:18:07;13.03;;;9.03;;
19828;SDS011;10075;50.924;4.396;2023-11-21T15:20:37;11.10;;;8.48;;
19828;SDS011;10075;50.924;4.396;2023-11-21T15:23:05;14.20;;;9.45;;
19828;SDS011;10075;50.924;4.396;2023-11-21T15:25:32;11.25;;;8.98;;
19828;SDS011;10075;50.924;4.396;2023-11-21T15:28:00;13.98;;;9.13;;
19828;SDS011;10075;50.924;4.396;2023-11-21T15:30:27;15.27;;;9.80;;
19828;SDS011;10075;50.924;4.396;2023-11-21T15:32:56;15.27;;;10.57;;
19828;SDS011;10075;50.924;4.396;2023-11-21T15:35:23;20.23;;;11.55;;
19828;SDS011;10075;50.924;4.396;2023-11-21T15:37:52;19.20;;;11.30;;
19828;SDS011;10075;50.924;4.396;2023-11-21T15:40:23;14.98;;;9.80;;
19828;SDS011;10075;50.924;4.396;2023-11-21T15:42:51;15.67;;;9.90;;
19828;SDS011;10075;50.924;4.396;2023-11-21T15:45:18;13.30;;;9.60;;
19828;SDS011;10075;50.924;4.396;2023-11-21T15:47:48;16.70;;;10.23;;
19828;SDS011;10075;50.924;4.396;2023-11-21T15:50:15;18.37;;;10.50;;
19828;SDS011;10075;50.924;4.396;2023-11-21T15:52:42;13.47;;;9.40;;
19828;SDS011;10075;50.924;4.396;2023-11-21T15:55:10;13.35;;;9.88;;
19828;SDS011;10075;50.924;4.396;2023-11-21T15:57:39;19.03;;;9.60;;
19828;SDS011;10075;50.924;4.396;2023-11-21T16:00:08;13.40;;;9.43;;
19828;SDS011;10075;50.924;4.396;2023-11-21T16:02:44;13.07;;;8.88;;
19828;SDS011;10075;50.924;4.396;2023-11-21T16:05:11;16.83;;;9.30;;
19828;SDS011;10075;50.924;4.396;2023-11-21T16:07:39;14.80;;;8.73;;
19828;SDS011;10075;50.924;4.396;2023-11-21T16:10:07;11.90;;;7.47;;